Time;durP1;ratioP1;P1;durP2;ratioP2;P2;SDS_P1;SDS_P2;PMS_P1;PMS_P2;Temp;Humidity;BMP_temperature;BMP_pressure;BME280_temperature;BME280_humidity;BME280_pressure;Samples;Min_cycle;Max_cycle;Signal;HPM_P1;HPM_P2
2023/09/16 00:02:07;;;;;;;;;3.50;3.25;;;;;24.22;37.87;100593.25;5059230;28;45951;-68
2023/09/16 00:04:32;;;;;;;;;5.50;5.50;;;;;24.20;38.14;100598.75;5067753;28;45281;-68
2023/09/16 00:06:59;;;;;;;;;6.00;6.00;;;;;24.19;38.17;100599.72;5057837;28;45568;-68
2023/09/16 00:09:24;;;;;;;;;6.75;5.00;;;;;24.16;38.36;100591.88;5059203;28;45484;-68
2023/09/16 00:11:49;;;;;;;;;6.00;5.50;;;;;24.11;38.19;100586.84;5060158;28;45224;-68
2023/09/16 00:14:18;;;;;;;;;6.00;6.00;;;;;24.11;38.33;100594.03;5062851;28;45224;-67
2023/09/16 00:16:44;;;;;;;;;6.25;6.25;;;;;24.07;38.37;100587.19;5062908;28;45301;-67
2023/09/16 00:19:10;;;;;;;;;7.00;7.00;;;;;24.04;38.13;100585.59;5062731;28;45407;-67
2023/09/16 00:21:35;;;;;;;;;7.25;6.25;;;;;24.02;38.36;100587.50;5062257;28;46094;-67
2023/09/16 00:24:00;;;;;;;;;8.00;8.00;;;;;24.01;38.43;100583.13;5062682;28;45263;-67
2023/09/16 00:26:27;;;;;;;;;6.25;5.50;;;;;23.96;38.57;100579.91;5062638;28;45427;-67
2023/09/16 00:28:52;;;;;;;;;4.25;4.25;;;;;23.98;38.21;100586.03;5062565;28;45526;-67
2023/09/16 00:31:17;;;;;;;;;5.50;5.50;;;;;23.94;38.54;100580.03;5062386;28;45373;-67
2023/09/16 00:33:43;;;;;;;;;7.75;7.00;;;;;23.93;38.68;100581.00;5062487;28;45283;-67
2023/09/16 00:36:09;;;;;;;;;9.50;6.25;;;;;23.89;38.62;100576.81;5062513;28;45271;-67
2023/09/16 00:38:34;;;;;;;;;7.00;6.00;;;;;23.89;38.92;100581.31;5062472;28;45271;-67
2023/09/16 00:41:00;;;;;;;;;5.75;5.75;;;;;23.90;38.60;100589.25;5061498;28;45681;-67
2023/09/16 00:43:25;;;;;;;;;9.50;7.75;;;;;23.87;38.65;100584.09;5062199;28;45241;-67
2023/09/16 00:45:50;;;;;;;;;8.00;6.25;;;;;23.83;38.92;100578.09;5062321;28;45208;-67
2023/09/16 00:48:20;;;;;;;;;7.00;6.25;;;;;23.79;38.65;100570.41;5062335;28;45223;-67
2023/09/16 00:50:46;;;;;;;;;9.75;8.00;;;;;23.78;39.22;100572.19;5060881;28;46991;-67
2023/09/16 00:53:15;;;;;;;;;10.25;8.25;;;;;23.74;38.98;100567.19;5062078;28;45319;-67
2023/09/16 00:55:41;;;;;;;;;7.00;7.00;;;;;23.70;39.00;100577.28;5061947;28;45362;-67
2023/09/16 00:58:09;;;;;;;;;9.00;7.00;;;;;23.66;39.07;100567.72;5062025;28;45589;-67
2023/09/16 01:00:34;;;;;;;;;7.00;7.00;;;;;23.64;39.28;100572.38;5061650;28;45474;-67
2023/09/16 01:03:01;;;;;;;;;7.75;7.50;;;;;23.61;39.12;100572.56;5066898;28;45295;-67
2023/09/16 01:05:27;;;;;;;;;8.50;7.50;;;;;23.58;39.45;100564.75;5065538;27;45520;-67
2023/09/16 01:07:52;;;;;;;;;5.50;5.25;;;;;23.57;39.37;100577.31;5061332;28;45426;-67
2023/09/16 01:10:22;;;;;;;;;9.00;6.50;;;;;23.52;39.40;100569.59;5061597;28;45807;-67
2023/09/16 01:12:50;;;;;;;;;8.00;8.00;;;;;23.50;39.70;100566.16;5061856;28;45369;-67
2023/09/16 01:15:18;;;;;;;;;7.75;7.75;;;;;23.47;39.60;100574.44;5061527;28;45315;-67
2023/09/16 01:17:54;;;;;;;;;5.00;5.00;;;;;23.43;39.64;100566.72;5060426;28;45467;-67
2023/09/16 01:20:21;;;;;;;;;6.75;6.75;;;;;23.41;39.76;100561.47;5059846;28;48097;-67
2023/09/16 01:22:47;;;;;;;;;6.00;6.00;;;;;23.40;39.31;100569.63;5061549;28;45286;-67
2023/09/16 01:25:17;;;;;;;;;7.75;7.75;;;;;23.38;39.66;100561.66;5077044;28;45273;-67
2023/09/16 01:27:43;;;;;;;;;8.00;6.50;;;;;23.36;39.82;100560.94;5061485;28;45406;-67
2023/09/16 01:30:09;;;;;;;;;5.50;5.50;;;;;23.35;39.82;100569.94;5061070;28;46078;-67
2023/09/16 01:32:43;;;;;;;;;7.25;6.00;;;;;23.33;39.90;100570.06;5061420;28;45280;-66
2023/09/16 01:35:11;;;;;;;;;6.00;6.00;;;;;23.31;39.91;100566.59;5061497;28;45261;-67
2023/09/16 01:37:39;;;;;;;;;4.25;3.00;;;;;23.30;40.16;100572.09;5061291;28;45197;-67
2023/09/16 01:40:12;;;;;;;;;7.75;7.75;;;;;23.30;39.81;100564.03;5061292;28;45248;-66
2023/09/16 01:42:40;;;;;;;;;8.25;8.25;;;;;23.26;40.21;100566.09;5059908;28;45316;-67
2023/09/16 01:45:06;;;;;;;;;9.50;8.00;;;;;23.23;40.04;100558.25;5061186;28;45505;-67
2023/09/16 01:47:32;;;;;;;;;11.25;9.25;;;;;23.21;39.87;100557.50;5061237;28;45518;-67
2023/09/16 01:49:57;;;;;;;;;8.75;7.00;;;;;23.21;40.17;100552.16;5061147;28;45311;-66
2023/09/16 01:52:23;;;;;;;;;8.25;8.25;;;;;23.17;40.29;100548.81;5061097;28;45287;-67
2023/09/16 01:54:48;;;;;;;;;8.25;8.00;;;;;23.12;40.23;100547.38;5076838;28;45380;-67
2023/09/16 01:57:13;;;;;;;;;8.00;7.75;;;;;23.12;40.31;100547.38;5044277;28;45240;-67
2023/09/16 01:59:39;;;;;;;;;10.50;9.00;;;;;23.12;40.24;100550.94;5040727;28;46859;-67
2023/09/16 02:02:04;;;;;;;;;9.75;8.00;;;;;23.10;40.50;100546.66;5040554;28;48535;-67
2023/09/16 02:04:29;;;;;;;;;7.00;7.00;;;;;23.09;40.36;100553.81;5064429;28;45244;-67
2023/09/16 02:06:55;;;;;;;;;8.25;7.00;;;;;23.08;40.61;100548.56;5060808;28;45235;-66
2023/09/16 02:09:20;;;;;;;;;7.25;7.25;;;;;23.07;40.30;100546.84;5060885;28;45308;-67
2023/09/16 02:11:45;;;;;;;;;8.50;7.25;;;;;23.01;40.60;100534.75;5060380;28;52397;-67
2023/09/16 02:14:12;;;;;;;;;8.00;7.00;;;;;23.04;40.74;100548.81;5059552;28;45375;-67
2023/09/16 02:16:37;;;;;;;;;7.25;7.25;;;;;23.03;40.88;100549.75;5060702;28;45528;-67
2023/09/16 02:19:03;;;;;;;;;9.00;8.00;;;;;23.01;40.58;100549.00;5060768;28;45422;-67
2023/09/16 02:21:29;;;;;;;;;6.25;6.00;;;;;23.02;40.49;100552.56;5060737;28;45354;-66
2023/09/16 02:23:54;;;;;;;;;8.00;7.25;;;;;22.99;40.78;100532.19;5061004;28;45333;-67
2023/09/16 02:26:20;;;;;;;;;8.25;7.00;;;;;22.98;40.65;100534.94;5059259;28;45613;-67
2023/09/16 02:28:45;;;;;;;;;7.00;7.00;;;;;22.97;40.62;100533.25;5060624;28;46122;-67
2023/09/16 02:31:10;;;;;;;;;8.75;8.00;;;;;22.88;40.84;100530.25;5060429;28;45443;-66
2023/09/16 02:33:38;;;;;;;;;6.75;6.75;;;;;22.93;40.60;100534.41;5060558;28;45249;-67
2023/09/16 02:36:07;;;;;;;;;8.50;7.00;;;;;22.92;40.74;100538.94;5060109;28;45251;-67
2023/09/16 02:38:32;;;;;;;;;5.00;4.25;;;;;22.90;40.86;100527.44;5060442;28;46988;-67
2023/09/16 02:40:58;;;;;;;;;7.50;7.50;;;;;22.88;41.03;100524.88;5060196;28;45174;-66
2023/09/16 02:43:23;;;;;;;;;7.75;7.75;;;;;22.86;40.87;100520.59;5060712;28;45355;-67
2023/09/16 02:45:49;;;;;;;;;6.50;6.50;;;;;22.86;40.93;100523.28;5060386;28;45439;-67
2023/09/16 02:48:17;;;;;;;;;6.00;6.00;;;;;22.82;41.25;100521.78;5060354;28;46984;-67
2023/09/16 02:50:46;;;;;;;;;9.25;8.00;;;;;22.81;41.37;100520.06;5060139;28;45326;-67
2023/09/16 02:53:11;;;;;;;;;8.50;8.50;;;;;22.81;41.05;100528.94;5060452;28;45227;-67
2023/09/16 02:55:36;;;;;;;;;10.00;7.75;;;;;22.78;41.08;100526.50;5059922;28;45255;-66
2023/09/16 02:58:02;;;;;;;;;8.00;8.00;;;;;22.77;41.14;100515.91;5060283;28;45331;-67
2023/09/16 03:00:28;;;;;;;;;8.00;8.00;;;;;22.75;41.12;100517.81;5059918;28;45271;-66
2023/09/16 03:02:53;;;;;;;;;11.25;9.00;;;;;22.73;41.61;100508.06;5064302;28;45406;-67
2023/09/16 03:05:18;;;;;;;;;8.75;7.25;;;;;22.72;41.28;100509.00;5061206;28;45404;-67
2023/09/16 03:07:44;;;;;;;;;7.75;7.00;;;;;22.71;41.25;100509.13;5059985;28;46565;-67
2023/09/16 03:10:10;;;;;;;;;8.50;7.25;;;;;22.70;41.37;100510.09;5059910;28;45322;-67
2023/09/16 03:12:35;;;;;;;;;5.75;5.75;;;;;22.66;41.29;100500.56;5060367;28;45390;-67
2023/09/16 03:15:01;;;;;;;;;6.75;6.25;;;;;22.63;41.46;100496.28;5059448;28;45382;-67
2023/09/16 03:17:26;;;;;;;;;8.25;7.00;;;;;22.64;41.65;100503.34;5059921;28;49161;-67
2023/09/16 03:19:52;;;;;;;;;9.25;8.75;;;;;22.61;41.33;100498.19;5059911;28;45459;-67
2023/09/16 03:22:18;;;;;;;;;7.75;7.75;;;;;22.60;41.51;100507.19;5059976;28;45454;-67
2023/09/16 03:24:43;;;;;;;;;7.75;7.75;;;;;22.60;41.58;100514.38;5059791;28;45355;-67
2023/09/16 03:27:09;;;;;;;;;9.75;9.00;;;;;22.57;41.56;100507.41;5059694;28;45260;-66
2023/09/16 03:29:34;;;;;;;;;9.00;8.50;;;;;22.54;41.72;100494.22;5059609;28;45208;-67
2023/09/16 03:31:59;;;;;;;;;7.00;7.00;;;;;22.46;41.68;100480.50;5059939;28;45681;-66
2023/09/16 03:34:25;;;;;;;;;9.00;8.00;;;;;22.45;41.84;100492.16;5059643;28;45593;-67
2023/09/16 03:36:51;;;;;;;;;7.25;7.00;;;;;22.45;42.00;100505.56;5075195;28;50091;-67
2023/09/16 03:39:16;;;;;;;;;7.75;7.00;;;;;22.42;42.03;100505.78;5059694;28;45166;-66
2023/09/16 03:41:41;;;;;;;;;10.75;9.00;;;;;22.42;42.25;100497.75;5059660;28;45453;-67
2023/09/16 03:44:07;;;;;;;;;8.25;7.00;;;;;22.39;41.86;100496.13;5059039;28;54998;-67
2023/09/16 03:46:32;;;;;;;;;8.75;8.00;;;;;22.36;42.13;100505.19;5060647;28;45256;-66
2023/09/16 03:48:57;;;;;;;;;6.50;4.75;;;;;22.33;42.42;100499.19;5063181;28;45231;-66
2023/09/16 03:51:23;;;;;;;;;9.25;7.75;;;;;22.29;42.06;100495.88;5063300;28;45808;-67
2023/09/16 03:53:49;;;;;;;;;10.00;9.00;;;;;22.24;42.22;100487.28;5062927;28;45615;-67
2023/09/16 03:56:14;;;;;;;;;9.50;7.00;;;;;22.24;42.17;100488.13;5062279;28;46245;-66
2023/09/16 03:58:39;;;;;;;;;9.00;8.00;;;;;22.23;42.03;100486.41;5062779;28;45249;-67
2023/09/16 04:01:05;;;;;;;;;9.75;9.75;;;;;22.20;42.53;100481.28;5063332;28;45394;-67
2023/09/16 04:03:31;;;;;;;;;8.00;7.00;;;;;22.19;42.37;100489.41;5071636;28;45279;-66
2023/09/16 04:05:58;;;;;;;;;9.25;8.75;;;;;22.17;41.85;100486.81;5062753;28;46117;-66
2023/09/16 04:08:27;;;;;;;;;9.75;8.50;;;;;22.14;42.32;100472.78;5062660;28;45249;-67
2023/09/16 04:10:52;;;;;;;;;8.00;8.00;;;;;22.12;42.65;100483.59;5062722;28;45279;-67
2023/09/16 04:13:18;;;;;;;;;5.50;5.50;;;;;22.12;42.54;100477.41;5062480;28;45245;-67
2023/09/16 04:15:44;;;;;;;;;6.75;6.75;;;;;22.08;42.30;100480.28;5062758;28;46762;-66
2023/09/16 04:18:09;;;;;;;;;9.25;7.75;;;;;22.09;42.37;100486.50;5062602;28;45391;-67
2023/09/16 04:20:35;;;;;;;;;7.50;7.50;;;;;22.07;42.68;100478.59;5061615;28;45446;-67
2023/09/16 04:23:01;;;;;;;;;6.75;6.00;;;;;22.07;42.60;100483.06;5062629;28;45507;-66
2023/09/16 04:25:26;;;;;;;;;8.00;8.00;;;;;22.06;42.08;100471.50;5062164;28;47380;-66
2023/09/16 04:27:51;;;;;;;;;9.50;7.50;;;;;22.06;42.67;100470.63;5062585;28;45343;-67
2023/09/16 04:30:17;;;;;;;;;8.25;8.25;;;;;22.04;42.68;100472.56;5062489;28;45387;-66
2023/09/16 04:32:42;;;;;;;;;6.50;5.00;;;;;22.01;42.36;100470.97;5062418;28;45713;-67
2023/09/16 04:35:07;;;;;;;;;8.25;6.00;;;;;22.00;42.31;100469.25;5062478;28;45433;-67
2023/09/16 04:37:33;;;;;;;;;10.50;9.00;;;;;22.00;42.70;100484.41;5062275;28;45366;-67
2023/09/16 04:39:58;;;;;;;;;7.50;7.50;;;;;21.98;42.77;100481.00;5062560;28;45325;-66
2023/09/16 04:42:30;;;;;;;;;8.75;8.75;;;;;21.99;42.73;100483.56;5062278;28;45512;-67
2023/09/16 04:44:55;;;;;;;;;7.00;7.00;;;;;21.96;42.59;100485.59;5062052;28;45551;-66
2023/09/16 04:47:21;;;;;;;;;8.50;7.50;;;;;21.93;42.47;100475.94;5061994;28;45330;-67
2023/09/16 04:49:48;;;;;;;;;8.50;8.50;;;;;21.95;42.75;100481.19;5062439;28;45245;-67
2023/09/16 04:52:13;;;;;;;;;9.25;9.25;;;;;21.92;42.94;100471.56;5062035;28;45331;-67
2023/09/16 04:54:39;;;;;;;;;7.00;7.00;;;;;21.89;43.04;100467.28;5061611;28;46399;-67
2023/09/16 04:57:06;;;;;;;;;9.50;6.75;;;;;21.90;42.71;100468.16;5061412;28;45497;-67
2023/09/16 04:59:32;;;;;;;;;8.25;7.50;;;;;21.84;43.11;100460.53;5061973;28;45662;-67
2023/09/16 05:01:58;;;;;;;;;10.00;10.00;;;;;21.86;43.06;100472.84;5061889;28;45246;-67
2023/09/16 05:04:24;;;;;;;;;10.50;8.75;;;;;21.87;43.28;100471.00;5069940;28;46205;-67
2023/09/16 05:06:49;;;;;;;;;9.50;9.25;;;;;21.85;43.23;100475.63;5061512;28;45397;-67
2023/09/16 05:09:14;;;;;;;;;8.00;8.00;;;;;21.83;43.33;100477.53;5062141;28;46397;-66
2023/09/16 05:11:40;;;;;;;;;10.00;9.00;;;;;21.80;43.08;100470.56;5061695;28;45318;-66
2023/09/16 05:14:05;;;;;;;;;9.50;9.00;;;;;21.77;43.26;100477.91;5061579;28;45816;-66
2023/09/16 05:16:30;;;;;;;;;41.25;36.25;;;;;21.75;43.09;100484.22;5061507;28;48688;-66
2023/09/16 05:18:55;;;;;;;;;9.00;9.00;;;;;21.72;43.20;100486.22;5061779;28;46739;-66
2023/09/16 05:21:21;;;;;;;;;8.00;8.00;;;;;21.73;43.26;100493.31;5061209;28;55842;-67
2023/09/16 05:23:46;;;;;;;;;9.75;9.75;;;;;21.71;43.22;100487.19;5061329;28;55694;-67
2023/09/16 05:26:14;;;;;;;;;9.00;8.00;;;;;21.70;43.35;100493.50;5061714;28;45402;-66
2023/09/16 05:28:39;;;;;;;;;11.25;9.00;;;;;21.64;43.11;100492.09;5061633;28;45234;-67
2023/09/16 05:31:05;;;;;;;;;12.50;9.75;;;;;21.65;43.33;100496.47;5061497;28;45351;-67
2023/09/16 05:33:30;;;;;;;;;7.75;7.00;;;;;21.60;43.73;100490.56;5061531;28;46424;-66
2023/09/16 05:35:56;;;;;;;;;9.50;8.25;;;;;21.60;43.33;100490.56;5061611;28;45248;-67
2023/09/16 05:38:21;;;;;;;;;11.00;10.00;;;;;21.60;43.27;100503.94;5061552;28;45307;-67
2023/09/16 05:40:46;;;;;;;;;9.00;8.25;;;;;21.56;43.89;100497.94;5061468;28;45158;-66
2023/09/16 05:43:12;;;;;;;;;10.75;8.25;;;;;21.57;43.99;100496.97;5061063;28;45311;-67
2023/09/16 05:45:37;;;;;;;;;9.50;9.25;;;;;21.57;43.75;100494.31;5053974;28;45398;-67
2023/09/16 05:48:04;;;;;;;;;10.00;9.00;;;;;21.55;43.78;100504.22;5061133;28;45283;-67
2023/09/16 05:50:30;;;;;;;;;9.00;8.75;;;;;21.57;43.43;100504.13;5061289;28;45244;-67
2023/09/16 05:52:56;;;;;;;;;13.00;10.50;;;;;21.55;43.65;100495.34;5060927;28;45245;-67
2023/09/16 05:55:21;;;;;;;;;10.75;9.50;;;;;21.55;44.00;100501.56;5060842;28;45356;-67
2023/09/16 05:57:46;;;;;;;;;14.25;11.25;;;;;21.54;43.99;100501.63;5061220;28;45681;-67
2023/09/16 06:00:12;;;;;;;;;10.25;10.25;;;;;21.54;43.53;100504.31;5060971;28;45450;-66
2023/09/16 06:02:39;;;;;;;;;6.25;5.75;;;;;21.54;43.60;100509.66;5062792;28;46194;-67
2023/09/16 06:05:08;;;;;;;;;11.50;10.50;;;;;21.54;43.76;100502.47;5066445;28;45373;-67
2023/09/16 06:07:41;;;;;;;;;9.50;8.50;;;;;21.55;43.92;100516.72;5061140;28;45299;-66
2023/09/16 06:10:07;;;;;;;;;8.25;8.25;;;;;21.55;43.79;100528.28;5059599;28;45484;-66
2023/09/16 06:12:33;;;;;;;;;9.00;9.00;;;;;21.54;44.22;100531.03;5060628;28;46716;-66
2023/09/16 06:14:58;;;;;;;;;9.50;8.50;;;;;21.55;43.84;100536.31;5060605;28;45189;-66
2023/09/16 06:17:23;;;;;;;;;11.00;10.50;;;;;21.55;43.95;100535.44;5061116;28;45433;-66
2023/09/16 06:19:52;;;;;;;;;12.50;11.00;;;;;21.51;43.79;100526.75;5060667;28;45659;-66
2023/09/16 06:22:18;;;;;;;;;9.75;9.75;;;;;21.54;43.95;100531.88;5060446;28;46140;-66
2023/09/16 06:24:43;;;;;;;;;11.25;10.75;;;;;21.56;44.51;100546.06;5060240;28;45300;-66
2023/09/16 06:27:08;;;;;;;;;10.00;10.00;;;;;21.57;43.94;100538.88;5059570;28;45402;-68
2023/09/16 06:29:34;;;;;;;;;9.00;9.00;;;;;21.56;43.97;100534.50;5060247;28;45495;-68
2023/09/16 06:31:59;;;;;;;;;8.75;8.50;;;;;21.56;44.15;100540.69;5060810;28;45478;-69
2023/09/16 06:34:24;;;;;;;;;12.00;10.25;;;;;21.57;44.32;100541.53;5075934;28;54064;-69
2023/09/16 06:36:49;;;;;;;;;11.75;11.00;;;;;21.56;44.37;100543.38;5060400;28;50208;-68
2023/09/16 06:39:15;;;;;;;;;13.75;13.00;;;;;21.58;44.78;100543.28;5060548;28;45494;-65
2023/09/16 06:41:40;;;;;;;;;12.75;10.00;;;;;21.62;44.28;100546.63;5060378;28;45264;-65
2023/09/16 06:44:06;;;;;;;;;6.75;6.75;;;;;21.60;44.23;100552.06;5060107;28;45294;-65
2023/09/16 06:46:31;;;;;;;;;11.25;10.25;;;;;21.65;44.81;100551.78;5059144;28;45326;-65
2023/09/16 06:48:56;;;;;;;;;13.00;10.00;;;;;21.65;44.37;100555.31;5060435;28;45236;-66
2023/09/16 06:51:22;;;;;;;;;9.25;9.25;;;;;21.65;45.00;100549.94;5060202;28;46096;-66
2023/09/16 06:53:47;;;;;;;;;8.50;8.50;;;;;21.66;44.77;100557.03;5054782;28;45402;-66
2023/09/16 06:56:12;;;;;;;;;10.50;8.75;;;;;21.71;44.30;100560.25;5059816;28;45283;-66
2023/09/16 06:58:37;;;;;;;;;16.75;13.50;;;;;21.70;44.44;100553.19;5060012;28;45279;-66
2023/09/16 07:01:12;;;;;;;;;9.25;8.75;;;;;21.74;45.15;100548.50;5060008;28;50644;-64
2023/09/16 07:03:38;;;;;;;;;10.25;10.25;;;;;21.73;44.36;100544.09;5067620;28;45275;-68
2023/09/16 07:06:03;;;;;;;;;10.75;10.00;;;;;21.74;44.85;100533.31;5059981;28;45312;-66
2023/09/16 07:08:29;;;;;;;;;9.25;9.00;;;;;21.78;44.80;100535.81;5059467;28;45518;-68
2023/09/16 07:10:55;;;;;;;;;11.75;10.00;;;;;21.80;44.53;100536.53;5059598;28;46712;-65
2023/09/16 07:13:20;;;;;;;;;9.00;8.25;;;;;21.82;44.91;100538.16;5058605;28;45450;-64
2023/09/16 07:15:56;;;;;;;;;11.00;10.00;;;;;21.86;44.77;100542.38;5059518;28;45471;-63
2023/09/16 07:18:21;;;;;;;;;12.50;12.00;;;;;21.87;45.12;100543.22;5059957;28;45307;-63
2023/09/16 07:20:48;;;;;;;;;11.25;11.00;;;;;21.90;45.00;100540.34;5059761;28;46250;-63
2023/09/16 07:23:13;;;;;;;;;8.50;8.50;;;;;21.94;44.73;100544.53;5059860;28;45374;-63
2023/09/16 07:25:38;;;;;;;;;5.00;5.00;;;;;21.97;45.21;100538.13;5075460;28;45323;-62
2023/09/16 07:28:04;;;;;;;;;9.25;7.25;;;;;21.98;44.79;100543.38;5059617;28;45581;-62
2023/09/16 07:30:30;;;;;;;;;8.00;8.00;;;;;22.00;44.87;100549.50;5059782;28;45998;-62
2023/09/16 07:32:56;;;;;;;;;10.50;9.50;;;;;22.04;45.35;100556.34;5059740;28;45260;-62
2023/09/16 07:35:21;;;;;;;;;9.50;9.00;;;;;22.07;45.05;100563.31;5059871;28;45141;-63
2023/09/16 07:37:47;;;;;;;;;21.50;19.00;;;;;22.10;45.20;100559.59;5059643;28;45204;-64
2023/09/16 07:40:12;;;;;;;;;12.25;12.00;;;;;22.11;44.83;100551.44;5059684;28;46033;-64
2023/09/16 07:42:38;;;;;;;;;11.25;11.25;;;;;22.11;45.03;100540.75;5059783;28;45320;-64
2023/09/16 07:45:04;;;;;;;;;10.00;9.00;;;;;22.14;45.31;100548.59;5059675;28;45178;-64
2023/09/16 07:47:29;;;;;;;;;10.25;9.00;;;;;22.17;45.22;100551.03;5059579;28;45486;-64
2023/09/16 07:49:54;;;;;;;;;8.00;8.00;;;;;22.21;45.23;100552.59;5059801;28;45804;-64
2023/09/16 07:52:20;;;;;;;;;13.50;8.75;;;;;22.24;45.35;100570.25;5074950;28;45726;-64
2023/09/16 07:54:45;;;;;;;;;9.00;9.00;;;;;22.27;45.24;100567.34;5059401;28;47755;-64
2023/09/16 07:57:12;;;;;;;;;10.75;9.75;;;;;22.29;45.06;100573.47;5059259;28;45523;-64
2023/09/16 07:59:37;;;;;;;;;10.25;9.50;;;;;22.31;45.18;100560.84;5059410;28;45440;-64
2023/09/16 08:02:03;;;;;;;;;11.00;10.00;;;;;22.36;45.45;100560.53;5074969;28;45468;-64
2023/09/16 08:04:28;;;;;;;;;12.25;10.00;;;;;22.40;45.19;100576.34;5066355;28;45359;-63
2023/09/16 08:06:53;;;;;;;;;10.25;8.00;;;;;22.44;45.38;100573.44;5057870;28;45518;-62
2023/09/16 08:09:19;;;;;;;;;7.50;7.50;;;;;22.44;45.31;100568.97;5059341;28;46132;-63
2023/09/16 08:11:44;;;;;;;;;7.25;7.25;;;;;22.48;45.23;100573.13;5059148;28;45214;-62
2023/09/16 08:14:09;;;;;;;;;9.25;8.25;;;;;22.49;45.58;100565.94;5059305;28;45361;-62
2023/09/16 08:16:35;;;;;;;;;11.25;8.00;;;;;22.55;44.96;100568.22;5059228;28;45213;-63
2023/09/16 08:19:00;;;;;;;;;10.75;8.75;;;;;22.58;45.34;100553.75;5059241;28;45246;-63
2023/09/16 08:21:25;;;;;;;;;7.50;7.50;;;;;22.62;45.49;100560.66;5057887;28;45307;-63
2023/09/16 08:23:51;;;;;;;;;7.25;7.25;;;;;22.66;45.68;100562.16;5059661;28;45252;-63
2023/09/16 08:26:16;;;;;;;;;8.50;7.75;;;;;22.69;45.14;100559.25;5059055;28;45473;-63
2023/09/16 08:28:41;;;;;;;;;6.25;6.25;;;;;22.72;45.09;100562.56;5059009;28;45212;-63
2023/09/16 08:31:06;;;;;;;;;10.00;9.00;;;;;22.75;45.45;100572.22;5057362;28;53886;-63
2023/09/16 08:33:32;;;;;;;;;8.25;8.25;;;;;22.78;45.28;100560.44;5061552;28;45169;-63
2023/09/16 08:35:57;;;;;;;;;9.50;8.00;;;;;22.84;45.31;100570.75;5061218;28;45403;-63
2023/09/16 08:38:23;;;;;;;;;9.50;9.25;;;;;22.88;45.27;100573.09;5062583;28;45988;-64
2023/09/16 08:40:59;;;;;;;;;7.75;7.75;;;;;22.92;45.46;100573.75;5062291;28;45239;-62
2023/09/16 08:43:31;;;;;;;;;9.00;7.75;;;;;22.97;45.55;100571.63;5055039;28;45489;-64
2023/09/16 08:46:02;;;;;;;;;10.00;10.00;;;;;23.03;45.70;100575.69;5058092;28;45198;-64
2023/09/16 08:48:33;;;;;;;;;8.25;7.00;;;;;23.09;45.05;100574.41;5056949;28;45557;-64
2023/09/16 08:51:01;;;;;;;;;12.50;9.00;;;;;23.13;45.33;100576.78;5060039;28;45412;-64
2023/09/16 08:53:29;;;;;;;;;10.50;10.00;;;;;23.18;45.23;100571.09;5061540;28;45787;-63
2023/09/16 08:55:55;;;;;;;;;7.25;7.00;;;;;23.24;45.20;100572.50;5061453;28;45470;-63
2023/09/16 08:58:21;;;;;;;;;8.50;8.50;;;;;23.32;45.20;100571.00;5061501;28;46062;-63
2023/09/16 09:00:46;;;;;;;;;9.00;8.25;;;;;23.34;45.50;100569.06;5054790;28;45246;-63
2023/09/16 09:03:12;;;;;;;;;11.25;10.50;;;;;23.44;45.25;100568.44;5046502;28;45299;-64
2023/09/16 09:05:38;;;;;;;;;8.00;8.00;;;;;23.49;45.91;100569.78;5049321;28;45427;-63
2023/09/16 09:08:08;;;;;;;;;8.50;8.50;;;;;23.60;45.30;100579.75;5047770;28;45420;-63
2023/09/16 09:10:36;;;;;;;;;7.00;7.00;;;;;23.68;45.31;100577.41;5060186;28;45186;-63
2023/09/16 09:13:03;;;;;;;;;10.75;10.00;;;;;23.76;45.51;100574.16;5053233;28;45388;-63
2023/09/16 09:15:30;;;;;;;;;8.25;8.25;;;;;23.84;45.33;100571.75;5051069;28;45511;-63
2023/09/16 09:17:57;;;;;;;;;11.00;10.00;;;;;23.86;45.35;100566.28;5052657;27;46389;-63
2023/09/16 09:20:26;;;;;;;;;11.00;8.50;;;;;23.98;45.20;100569.94;5050854;28;45473;-64
2023/09/16 09:22:52;;;;;;;;;10.75;10.75;;;;;24.08;45.20;100562.06;5053863;28;45266;-64
2023/09/16 09:25:24;;;;;;;;;9.50;7.50;;;;;24.14;45.47;100569.66;5051962;28;45446;-63
2023/09/16 09:27:51;;;;;;;;;9.25;9.25;;;;;24.24;45.29;100568.00;5052506;28;45371;-66
2023/09/16 09:30:19;;;;;;;;;7.25;7.25;;;;;24.34;45.37;100569.03;5052591;28;45454;-67
2023/09/16 09:32:45;;;;;;;;;9.25;9.25;;;;;24.46;45.11;100564.53;5053244;28;46302;-67
2023/09/16 09:35:11;;;;;;;;;9.00;8.00;;;;;24.56;45.27;100564.72;5050349;28;45598;-67
2023/09/16 09:37:39;;;;;;;;;10.50;10.00;;;;;24.70;45.38;100562.84;5053589;28;46071;-66
2023/09/16 09:40:12;;;;;;;;;7.00;7.00;;;;;24.81;44.77;100554.81;5051565;28;45445;-67
2023/09/16 09:42:47;;;;;;;;;11.00;10.75;;;;;24.93;45.22;100553.84;5050979;28;45319;-69
2023/09/16 09:45:19;;;;;;;;;7.00;7.00;;;;;25.11;45.03;100558.78;5047885;28;45607;-66
2023/09/16 09:47:46;;;;;;;;;9.00;9.00;;;;;25.25;45.30;100563.06;5051564;28;46450;-66
2023/09/16 09:50:13;;;;;;;;;8.00;8.00;;;;;25.36;44.92;100554.13;5052288;28;45354;-66
2023/09/16 09:52:44;;;;;;;;;7.75;7.00;;;;;25.50;44.71;100548.53;5050525;28;45404;-67
2023/09/16 09:55:09;;;;;;;;;7.25;7.25;;;;;25.62;44.61;100550.25;5052134;28;45474;-66
2023/09/16 09:57:35;;;;;;;;;7.00;7.00;;;;;25.72;44.91;100549.50;5048875;28;46569;-66
2023/09/16 10:00:01;;;;;;;;;8.00;8.00;;;;;25.83;44.70;100548.63;5053388;28;46377;-66
2023/09/16 10:02:27;;;;;;;;;7.50;7.50;;;;;25.95;44.52;100551.16;5052386;28;45430;-66
2023/09/16 10:05:02;;;;;;;;;9.75;9.75;;;;;26.04;44.19;100549.53;5054748;27;45538;-67
2023/09/16 10:07:31;;;;;;;;;7.75;7.75;;;;;26.15;44.67;100546.00;5048293;28;46099;-64
2023/09/16 10:09:57;;;;;;;;;9.00;8.75;;;;;26.27;44.65;100536.88;5060472;28;45341;-69
2023/09/16 10:12:22;;;;;;;;;8.00;8.00;;;;;26.37;44.35;100539.66;5055219;28;45393;-64
2023/09/16 10:14:48;;;;;;;;;9.50;9.25;;;;;26.42;44.56;100536.59;5060088;28;45266;-64
2023/09/16 10:17:15;;;;;;;;;8.50;7.75;;;;;26.57;44.01;100540.66;5042681;28;47170;-64
2023/09/16 10:19:41;;;;;;;;;8.25;8.00;;;;;26.67;43.88;100538.03;5060738;28;45323;-63
2023/09/16 10:22:06;;;;;;;;;7.75;7.75;;;;;26.79;44.08;100541.53;5060869;28;45444;-64
2023/09/16 10:24:32;;;;;;;;;8.50;8.00;;;;;26.89;43.69;100536.22;5042587;28;45522;-64
2023/09/16 10:27:05;;;;;;;;;6.75;5.50;;;;;27.00;43.84;100533.44;5042432;28;48474;-61
2023/09/16 10:29:31;;;;;;;;;10.00;7.25;;;;;27.13;43.96;100541.34;5060447;28;45436;-61
2023/09/16 10:31:58;;;;;;;;;8.00;7.00;;;;;27.26;44.00;100541.09;5042590;28;45372;-63
2023/09/16 10:34:23;;;;;;;;;9.25;9.25;;;;;27.37;44.13;100542.84;5060749;28;45364;-61
2023/09/16 10:36:49;;;;;;;;;9.00;9.00;;;;;27.52;44.10;100537.94;5060070;28;45384;-61
2023/09/16 10:39:15;;;;;;;;;9.75;7.25;;;;;27.64;43.70;100541.41;5060578;28;45395;-61
2023/09/16 10:41:43;;;;;;;;;9.50;8.50;;;;;27.80;43.33;100544.44;5042360;28;45357;-61
2023/09/16 10:44:12;;;;;;;;;9.25;9.00;;;;;27.95;43.51;100552.97;5047550;28;45350;-61
2023/09/16 10:46:38;;;;;;;;;7.50;7.00;;;;;28.10;43.29;100549.91;5059691;28;46052;-60
2023/09/16 10:49:03;;;;;;;;;7.75;6.25;;;;;28.22;43.36;100549.63;5060276;28;45679;-61
2023/09/16 10:51:39;;;;;;;;;9.25;8.50;;;;;28.40;43.29;100543.50;5060352;28;45315;-61
2023/09/16 10:54:14;;;;;;;;;9.50;8.25;;;;;28.54;43.26;100548.50;5060151;28;45271;-61
2023/09/16 10:56:43;;;;;;;;;7.25;6.50;;;;;28.69;43.10;100545.34;5059530;28;46532;-61
2023/09/16 10:59:13;;;;;;;;;8.00;8.00;;;;;28.82;42.97;100545.91;5058257;28;45276;-62
2023/09/16 11:02:03;;;;;;;;;7.00;7.00;;;;;28.98;42.67;100550.72;5056203;28;45426;-62
2023/09/16 11:04:29;;;;;;;;;8.50;8.50;;;;;29.13;42.65;100545.69;5059666;28;45513;-61
2023/09/16 11:06:57;;;;;;;;;11.00;9.75;;;;;29.27;42.76;100546.19;5053837;28;46967;-62
2023/09/16 11:09:24;;;;;;;;;7.75;6.75;;;;;29.41;42.60;100553.88;5060281;28;45367;-62
2023/09/16 11:11:50;;;;;;;;;9.00;8.00;;;;;29.56;42.54;100545.25;5060050;28;45227;-62
2023/09/16 11:14:18;;;;;;;;;4.00;4.00;;;;;29.71;42.27;100553.72;5059821;28;45481;-62
2023/09/16 11:16:52;;;;;;;;;8.00;8.00;;;;;29.84;41.96;100551.50;5059685;28;46036;-62
2023/09/16 11:19:24;;;;;;;;;8.00;8.00;;;;;29.94;42.12;100551.47;5059829;28;45350;-62